Terminal Aerodrome Forecast
Issued by NWS Jackson, KY

Home | Current Version | Previous Version | Text Only | Print | Product List | Glossary On
Versions: 1 2 3 4 5 6 7 8 9 10 11 12 13 14 15 16 17 18 19 20
000
FTUS43 KJKL 161300 AAA
TAFJKL
TAF AMD
KJKL 161323Z 1613/1712 00000KT 1/4SM FG VCSH BKN003 OVC015
     FM161500 VRB03KT 3SM BR VCSH OVC008
     FM161600 VRB03KT P6SM BKN022
     FM162100 00000KT P6SM BKN035
     FM170600 00000KT 2SM BR SCT001=

USA.gov is the U.S. government's official web portal to all federal, state and local government web resources and services.